sensor_id;sensor_type;location;lat;lon;timestamp;P1;durP1;ratioP1;P2;durP2;ratioP2
25627;SDS011;40915;50.826;4.356;2023-01-26T00:01:55;88.57;;;29.00;;
25627;SDS011;40915;50.826;4.356;2023-01-26T00:04:21;85.67;;;29.83;;
25627;SDS011;40915;50.826;4.356;2023-01-26T00:06:47;89.97;;;29.70;;
25627;SDS011;40915;50.826;4.356;2023-01-26T00:09:13;92.33;;;31.73;;
25627;SDS011;40915;50.826;4.356;2023-01-26T00:11:39;93.43;;;30.70;;
25627;SDS011;40915;50.826;4.356;2023-01-26T00:14:06;94.10;;;30.77;;
25627;SDS011;40915;50.826;4.356;2023-01-26T00:16:32;94.27;;;30.40;;
25627;SDS011;40915;50.826;4.356;2023-01-26T00:18:57;89.43;;;30.50;;
25627;SDS011;40915;50.826;4.356;2023-01-26T00:21:23;88.23;;;30.43;;
25627;SDS011;40915;50.826;4.356;2023-01-26T00:23:50;90.73;;;29.63;;
25627;SDS011;40915;50.826;4.356;2023-01-26T00:26:18;100.97;;;31.57;;
25627;SDS011;40915;50.826;4.356;2023-01-26T00:28:44;87.87;;;30.00;;
25627;SDS011;40915;50.826;4.356;2023-01-26T00:31:11;91.23;;;30.80;;
25627;SDS011;40915;50.826;4.356;2023-01-26T00:33:38;94.70;;;30.27;;
25627;SDS011;40915;50.826;4.356;2023-01-26T00:36:04;97.53;;;32.33;;
25627;SDS011;40915;50.826;4.356;2023-01-26T00:38:30;97.30;;;31.10;;
25627;SDS011;40915;50.826;4.356;2023-01-26T00:40:56;93.37;;;30.73;;
25627;SDS011;40915;50.826;4.356;2023-01-26T00:43:22;105.10;;;33.00;;
25627;SDS011;40915;50.826;4.356;2023-01-26T00:45:48;104.73;;;30.97;;
25627;SDS011;40915;50.826;4.356;2023-01-26T00:48:14;95.93;;;30.53;;
25627;SDS011;40915;50.826;4.356;2023-01-26T00:50:40;92.83;;;30.87;;
25627;SDS011;40915;50.826;4.356;2023-01-26T00:53:06;91.97;;;31.70;;
25627;SDS011;40915;50.826;4.356;2023-01-26T00:55:32;96.57;;;32.50;;
25627;SDS011;40915;50.826;4.356;2023-01-26T00:57:59;101.80;;;33.20;;
25627;SDS011;40915;50.826;4.356;2023-01-26T01:00:25;100.87;;;31.10;;
25627;SDS011;40915;50.826;4.356;2023-01-26T01:02:51;96.77;;;31.90;;
25627;SDS011;40915;50.826;4.356;2023-01-26T01:05:17;93.10;;;30.70;;
25627;SDS011;40915;50.826;4.356;2023-01-26T01:07:42;100.37;;;33.97;;
25627;SDS011;40915;50.826;4.356;2023-01-26T01:10:09;100.90;;;33.50;;
25627;SDS011;40915;50.826;4.356;2023-01-26T01:12:35;101.47;;;34.37;;
25627;SDS011;40915;50.826;4.356;2023-01-26T01:15:01;97.77;;;33.40;;
25627;SDS011;40915;50.826;4.356;2023-01-26T01:17:27;94.43;;;32.97;;
25627;SDS011;40915;50.826;4.356;2023-01-26T01:19:53;90.57;;;31.97;;
25627;SDS011;40915;50.826;4.356;2023-01-26T01:22:19;91.10;;;31.47;;
25627;SDS011;40915;50.826;4.356;2023-01-26T01:24:45;96.07;;;31.87;;
25627;SDS011;40915;50.826;4.356;2023-01-26T01:27:11;101.83;;;33.10;;
25627;SDS011;40915;50.826;4.356;2023-01-26T01:29:36;95.73;;;32.53;;
25627;SDS011;40915;50.826;4.356;2023-01-26T01:32:03;92.83;;;32.67;;
25627;SDS011;40915;50.826;4.356;2023-01-26T01:34:29;91.47;;;32.10;;
25627;SDS011;40915;50.826;4.356;2023-01-26T01:36:55;91.73;;;31.90;;
25627;SDS011;40915;50.826;4.356;2023-01-26T01:39:21;94.43;;;31.17;;
25627;SDS011;40915;50.826;4.356;2023-01-26T01:41:46;92.93;;;32.43;;
25627;SDS011;40915;50.826;4.356;2023-01-26T01:44:20;89.13;;;30.37;;
25627;SDS011;40915;50.826;4.356;2023-01-26T01:46:47;88.30;;;31.97;;
25627;SDS011;40915;50.826;4.356;2023-01-26T01:51:40;91.73;;;30.97;;
25627;SDS011;40915;50.826;4.356;2023-01-26T01:54:09;84.77;;;30.03;;
25627;SDS011;40915;50.826;4.356;2023-01-26T01:56:36;90.60;;;30.30;;
25627;SDS011;40915;50.826;4.356;2023-01-26T01:59:05;88.57;;;29.60;;
25627;SDS011;40915;50.826;4.356;2023-01-26T02:01:32;90.73;;;29.03;;
25627;SDS011;40915;50.826;4.356;2023-01-26T02:03:58;87.67;;;29.20;;
25627;SDS011;40915;50.826;4.356;2023-01-26T02:06:27;89.90;;;28.47;;
25627;SDS011;40915;50.826;4.356;2023-01-26T02:08:54;86.30;;;27.93;;
25627;SDS011;40915;50.826;4.356;2023-01-26T02:13:49;88.60;;;29.30;;
25627;SDS011;40915;50.826;4.356;2023-01-26T02:16:16;91.87;;;29.17;;
25627;SDS011;40915;50.826;4.356;2023-01-26T02:18:43;93.23;;;30.60;;
25627;SDS011;40915;50.826;4.356;2023-01-26T02:21:10;89.70;;;30.10;;
25627;SDS011;40915;50.826;4.356;2023-01-26T02:23:44;86.07;;;28.80;;
25627;SDS011;40915;50.826;4.356;2023-01-26T02:26:31;85.27;;;30.50;;
25627;SDS011;40915;50.826;4.356;2023-01-26T02:28:58;87.97;;;29.20;;
25627;SDS011;40915;50.826;4.356;2023-01-26T02:31:24;91.13;;;29.93;;
25627;SDS011;40915;50.826;4.356;2023-01-26T02:33:51;92.10;;;30.13;;
25627;SDS011;40915;50.826;4.356;2023-01-26T02:36:19;97.53;;;31.77;;
25627;SDS011;40915;50.826;4.356;2023-01-26T02:38:48;90.50;;;31.10;;
25627;SDS011;40915;50.826;4.356;2023-01-26T02:41:16;104.50;;;33.67;;
25627;SDS011;40915;50.826;4.356;2023-01-26T02:44:02;93.70;;;30.00;;
25627;SDS011;40915;50.826;4.356;2023-01-26T02:46:29;91.80;;;30.00;;
25627;SDS011;40915;50.826;4.356;2023-01-26T02:48:55;93.30;;;30.60;;
25627;SDS011;40915;50.826;4.356;2023-01-26T02:51:40;86.23;;;29.00;;
25627;SDS011;40915;50.826;4.356;2023-01-26T02:54:05;90.87;;;32.50;;
25627;SDS011;40915;50.826;4.356;2023-01-26T02:56:31;89.87;;;30.77;;
25627;SDS011;40915;50.826;4.356;2023-01-26T02:58:57;87.07;;;29.10;;
25627;SDS011;40915;50.826;4.356;2023-01-26T03:01:23;83.10;;;30.40;;
25627;SDS011;40915;50.826;4.356;2023-01-26T03:03:49;82.43;;;29.77;;
25627;SDS011;40915;50.826;4.356;2023-01-26T03:06:15;79.77;;;28.13;;
25627;SDS011;40915;50.826;4.356;2023-01-26T03:08:42;84.77;;;29.93;;
25627;SDS011;40915;50.826;4.356;2023-01-26T03:11:08;77.67;;;29.90;;
25627;SDS011;40915;50.826;4.356;2023-01-26T03:13:34;80.97;;;30.70;;
25627;SDS011;40915;50.826;4.356;2023-01-26T03:16:00;76.17;;;27.23;;
25627;SDS011;40915;50.826;4.356;2023-01-26T03:18:31;93.70;;;30.80;;
25627;SDS011;40915;50.826;4.356;2023-01-26T03:21:16;89.93;;;30.53;;
25627;SDS011;40915;50.826;4.356;2023-01-26T03:24:01;83.67;;;30.47;;
25627;SDS011;40915;50.826;4.356;2023-01-26T03:26:46;85.17;;;30.10;;
25627;SDS011;40915;50.826;4.356;2023-01-26T03:29:30;84.40;;;29.43;;
25627;SDS011;40915;50.826;4.356;2023-01-26T03:31:56;84.53;;;30.47;;
25627;SDS011;40915;50.826;4.356;2023-01-26T03:34:25;97.93;;;41.90;;
25627;SDS011;40915;50.826;4.356;2023-01-26T03:36:53;86.63;;;29.97;;
25627;SDS011;40915;50.826;4.356;2023-01-26T03:39:19;70.33;;;27.47;;
25627;SDS011;40915;50.826;4.356;2023-01-26T03:42:04;76.77;;;27.70;;
25627;SDS011;40915;50.826;4.356;2023-01-26T03:44:49;73.53;;;25.73;;
25627;SDS011;40915;50.826;4.356;2023-01-26T03:47:34;68.87;;;26.03;;
25627;SDS011;40915;50.826;4.356;2023-01-26T03:50:19;68.97;;;26.13;;
25627;SDS011;40915;50.826;4.356;2023-01-26T03:53:11;63.93;;;24.70;;
25627;SDS011;40915;50.826;4.356;2023-01-26T03:55:56;67.80;;;25.47;;
25627;SDS011;40915;50.826;4.356;2023-01-26T03:58:38;69.03;;;25.40;;
25627;SDS011;40915;50.826;4.356;2023-01-26T04:01:04;67.30;;;24.30;;
25627;SDS011;40915;50.826;4.356;2023-01-26T04:03:30;62.83;;;23.20;;
25627;SDS011;40915;50.826;4.356;2023-01-26T04:06:15;56.50;;;22.77;;
25627;SDS011;40915;50.826;4.356;2023-01-26T04:09:00;71.70;;;25.00;;
25627;SDS011;40915;50.826;4.356;2023-01-26T04:11:26;62.73;;;23.43;;
25627;SDS011;40915;50.826;4.356;2023-01-26T04:13:52;68.70;;;24.97;;
25627;SDS011;40915;50.826;4.356;2023-01-26T04:16:36;67.27;;;23.60;;
25627;SDS011;40915;50.826;4.356;2023-01-26T04:19:21;62.63;;;23.90;;
25627;SDS011;40915;50.826;4.356;2023-01-26T04:22:05;58.53;;;22.63;;
25627;SDS011;40915;50.826;4.356;2023-01-26T04:24:31;59.57;;;22.27;;
25627;SDS011;40915;50.826;4.356;2023-01-26T04:26:57;59.77;;;23.47;;
25627;SDS011;40915;50.826;4.356;2023-01-26T04:29:23;67.33;;;24.37;;
25627;SDS011;40915;50.826;4.356;2023-01-26T04:31:49;70.43;;;25.20;;
25627;SDS011;40915;50.826;4.356;2023-01-26T04:34:15;67.93;;;25.10;;
25627;SDS011;40915;50.826;4.356;2023-01-26T04:36:41;65.67;;;24.93;;
25627;SDS011;40915;50.826;4.356;2023-01-26T04:39:08;65.83;;;23.57;;
25627;SDS011;40915;50.826;4.356;2023-01-26T04:41:34;58.47;;;22.87;;
25627;SDS011;40915;50.826;4.356;2023-01-26T04:44:00;61.13;;;22.03;;
25627;SDS011;40915;50.826;4.356;2023-01-26T04:46:26;60.83;;;23.80;;
25627;SDS011;40915;50.826;4.356;2023-01-26T04:48:52;58.23;;;23.17;;
25627;SDS011;40915;50.826;4.356;2023-01-26T04:51:19;64.33;;;23.10;;
25627;SDS011;40915;50.826;4.356;2023-01-26T04:53:46;67.03;;;24.73;;
25627;SDS011;40915;50.826;4.356;2023-01-26T04:58:44;59.47;;;23.00;;
25627;SDS011;40915;50.826;4.356;2023-01-26T05:01:10;58.67;;;23.23;;
25627;SDS011;40915;50.826;4.356;2023-01-26T05:03:36;63.13;;;23.20;;
25627;SDS011;40915;50.826;4.356;2023-01-26T05:06:02;58.97;;;22.47;;
25627;SDS011;40915;50.826;4.356;2023-01-26T05:08:28;63.53;;;23.67;;
25627;SDS011;40915;50.826;4.356;2023-01-26T05:10:54;64.13;;;24.53;;
25627;SDS011;40915;50.826;4.356;2023-01-26T05:13:20;62.93;;;23.40;;
25627;SDS011;40915;50.826;4.356;2023-01-26T05:15:46;64.37;;;23.63;;
25627;SDS011;40915;50.826;4.356;2023-01-26T05:18:12;67.73;;;25.10;;
25627;SDS011;40915;50.826;4.356;2023-01-26T05:20:38;68.57;;;25.17;;
25627;SDS011;40915;50.826;4.356;2023-01-26T05:23:04;58.90;;;22.97;;
25627;SDS011;40915;50.826;4.356;2023-01-26T05:25:30;53.63;;;22.33;;
25627;SDS011;40915;50.826;4.356;2023-01-26T05:27:56;54.77;;;21.00;;
25627;SDS011;40915;50.826;4.356;2023-01-26T05:30:22;58.07;;;21.97;;
25627;SDS011;40915;50.826;4.356;2023-01-26T05:32:48;60.33;;;22.43;;
25627;SDS011;40915;50.826;4.356;2023-01-26T05:35:14;53.77;;;21.63;;
25627;SDS011;40915;50.826;4.356;2023-01-26T05:37:40;53.20;;;21.13;;
25627;SDS011;40915;50.826;4.356;2023-01-26T05:40:08;57.17;;;21.07;;
25627;SDS011;40915;50.826;4.356;2023-01-26T05:42:34;55.93;;;21.07;;
25627;SDS011;40915;50.826;4.356;2023-01-26T05:45:00;55.17;;;21.47;;
25627;SDS011;40915;50.826;4.356;2023-01-26T05:47:26;54.37;;;20.60;;
25627;SDS011;40915;50.826;4.356;2023-01-26T05:49:52;56.80;;;21.70;;
25627;SDS011;40915;50.826;4.356;2023-01-26T05:52:19;51.83;;;21.37;;
25627;SDS011;40915;50.826;4.356;2023-01-26T05:54:46;50.57;;;19.43;;
25627;SDS011;40915;50.826;4.356;2023-01-26T05:57:12;46.27;;;19.40;;
25627;SDS011;40915;50.826;4.356;2023-01-26T05:59:38;46.43;;;18.27;;
25627;SDS011;40915;50.826;4.356;2023-01-26T06:02:04;43.13;;;18.20;;
25627;SDS011;40915;50.826;4.356;2023-01-26T06:04:30;46.43;;;18.17;;
25627;SDS011;40915;50.826;4.356;2023-01-26T06:06:57;46.53;;;18.47;;
25627;SDS011;40915;50.826;4.356;2023-01-26T06:09:23;46.67;;;18.13;;
25627;SDS011;40915;50.826;4.356;2023-01-26T06:11:49;50.73;;;20.37;;
25627;SDS011;40915;50.826;4.356;2023-01-26T06:14:15;48.37;;;19.23;;
25627;SDS011;40915;50.826;4.356;2023-01-26T06:16:41;44.60;;;19.17;;
25627;SDS011;40915;50.826;4.356;2023-01-26T06:19:08;45.67;;;19.47;;
25627;SDS011;40915;50.826;4.356;2023-01-26T06:21:34;45.20;;;18.53;;
25627;SDS011;40915;50.826;4.356;2023-01-26T06:24:00;48.30;;;19.53;;
25627;SDS011;40915;50.826;4.356;2023-01-26T06:26:26;48.13;;;19.30;;
25627;SDS011;40915;50.826;4.356;2023-01-26T06:28:52;43.00;;;18.30;;
25627;SDS011;40915;50.826;4.356;2023-01-26T06:31:18;44.30;;;17.90;;
25627;SDS011;40915;50.826;4.356;2023-01-26T06:33:44;46.17;;;18.67;;
25627;SDS011;40915;50.826;4.356;2023-01-26T06:36:12;45.70;;;18.83;;
25627;SDS011;40915;50.826;4.356;2023-01-26T06:38:38;46.17;;;18.03;;
25627;SDS011;40915;50.826;4.356;2023-01-26T06:41:05;46.03;;;18.37;;
25627;SDS011;40915;50.826;4.356;2023-01-26T06:43:32;49.37;;;19.60;;
25627;SDS011;40915;50.826;4.356;2023-01-26T06:45:58;49.50;;;19.57;;
25627;SDS011;40915;50.826;4.356;2023-01-26T06:48:24;45.30;;;18.57;;
25627;SDS011;40915;50.826;4.356;2023-01-26T06:50:51;45.77;;;18.70;;
25627;SDS011;40915;50.826;4.356;2023-01-26T06:53:24;45.20;;;18.83;;
25627;SDS011;40915;50.826;4.356;2023-01-26T06:55:50;48.63;;;18.90;;
25627;SDS011;40915;50.826;4.356;2023-01-26T06:58:16;48.50;;;18.53;;
25627;SDS011;40915;50.826;4.356;2023-01-26T07:00:43;44.93;;;17.43;;
25627;SDS011;40915;50.826;4.356;2023-01-26T07:03:09;40.03;;;16.77;;
25627;SDS011;40915;50.826;4.356;2023-01-26T07:05:35;39.90;;;17.03;;
25627;SDS011;40915;50.826;4.356;2023-01-26T07:08:01;41.90;;;17.37;;
25627;SDS011;40915;50.826;4.356;2023-01-26T07:10:30;40.83;;;16.83;;
25627;SDS011;40915;50.826;4.356;2023-01-26T07:12:56;38.63;;;15.97;;
25627;SDS011;40915;50.826;4.356;2023-01-26T07:15:22;38.00;;;15.77;;
25627;SDS011;40915;50.826;4.356;2023-01-26T07:17:48;38.47;;;15.40;;
25627;SDS011;40915;50.826;4.356;2023-01-26T07:20:14;40.07;;;15.93;;
25627;SDS011;40915;50.826;4.356;2023-01-26T07:22:40;34.63;;;15.23;;
25627;SDS011;40915;50.826;4.356;2023-01-26T07:25:06;35.00;;;15.47;;
25627;SDS011;40915;50.826;4.356;2023-01-26T07:27:32;35.93;;;15.53;;
25627;SDS011;40915;50.826;4.356;2023-01-26T07:29:58;38.77;;;16.03;;
25627;SDS011;40915;50.826;4.356;2023-01-26T07:32:24;34.60;;;15.17;;
25627;SDS011;40915;50.826;4.356;2023-01-26T07:34:50;36.47;;;14.67;;
25627;SDS011;40915;50.826;4.356;2023-01-26T07:37:16;34.70;;;14.30;;
25627;SDS011;40915;50.826;4.356;2023-01-26T07:39:42;40.30;;;15.90;;
25627;SDS011;40915;50.826;4.356;2023-01-26T07:42:08;34.27;;;15.17;;
25627;SDS011;40915;50.826;4.356;2023-01-26T07:44:35;36.17;;;16.40;;
25627;SDS011;40915;50.826;4.356;2023-01-26T07:47:01;37.30;;;15.60;;
25627;SDS011;40915;50.826;4.356;2023-01-26T07:49:27;36.70;;;15.07;;
25627;SDS011;40915;50.826;4.356;2023-01-26T07:51:53;36.17;;;15.47;;
25627;SDS011;40915;50.826;4.356;2023-01-26T07:54:18;36.93;;;15.87;;
25627;SDS011;40915;50.826;4.356;2023-01-26T07:56:51;36.43;;;15.93;;
25627;SDS011;40915;50.826;4.356;2023-01-26T07:59:17;34.90;;;15.70;;
25627;SDS011;40915;50.826;4.356;2023-01-26T08:01:43;35.67;;;14.70;;
25627;SDS011;40915;50.826;4.356;2023-01-26T08:04:10;34.93;;;15.20;;
25627;SDS011;40915;50.826;4.356;2023-01-26T08:06:36;44.27;;;16.83;;
25627;SDS011;40915;50.826;4.356;2023-01-26T08:09:02;38.53;;;16.27;;
25627;SDS011;40915;50.826;4.356;2023-01-26T08:11:28;39.87;;;16.30;;
25627;SDS011;40915;50.826;4.356;2023-01-26T08:13:54;38.73;;;16.17;;
25627;SDS011;40915;50.826;4.356;2023-01-26T08:16:20;35.33;;;16.33;;
25627;SDS011;40915;50.826;4.356;2023-01-26T08:18:46;37.83;;;16.43;;
25627;SDS011;40915;50.826;4.356;2023-01-26T08:21:13;35.67;;;15.47;;
25627;SDS011;40915;50.826;4.356;2023-01-26T08:23:39;38.83;;;17.57;;
25627;SDS011;40915;50.826;4.356;2023-01-26T08:26:06;40.20;;;15.93;;
25627;SDS011;40915;50.826;4.356;2023-01-26T08:28:33;36.13;;;15.90;;
25627;SDS011;40915;50.826;4.356;2023-01-26T08:31:03;43.07;;;16.87;;
25627;SDS011;40915;50.826;4.356;2023-01-26T08:33:30;37.90;;;17.00;;
25627;SDS011;40915;50.826;4.356;2023-01-26T08:36:00;43.30;;;17.90;;
25627;SDS011;40915;50.826;4.356;2023-01-26T08:38:28;35.87;;;15.70;;
25627;SDS011;40915;50.826;4.356;2023-01-26T08:40:54;40.77;;;16.50;;
25627;SDS011;40915;50.826;4.356;2023-01-26T08:43:20;41.73;;;16.93;;
25627;SDS011;40915;50.826;4.356;2023-01-26T08:45:46;40.07;;;16.70;;
25627;SDS011;40915;50.826;4.356;2023-01-26T08:48:12;40.60;;;17.00;;
25627;SDS011;40915;50.826;4.356;2023-01-26T08:50:38;41.93;;;16.90;;
25627;SDS011;40915;50.826;4.356;2023-01-26T08:53:04;40.50;;;17.17;;
25627;SDS011;40915;50.826;4.356;2023-01-26T08:55:30;36.00;;;16.70;;
25627;SDS011;40915;50.826;4.356;2023-01-26T08:57:56;41.07;;;17.07;;
25627;SDS011;40915;50.826;4.356;2023-01-26T09:00:23;44.33;;;17.57;;
25627;SDS011;40915;50.826;4.356;2023-01-26T09:02:50;47.70;;;19.07;;
25627;SDS011;40915;50.826;4.356;2023-01-26T09:05:16;41.37;;;16.33;;
25627;SDS011;40915;50.826;4.356;2023-01-26T09:07:42;41.80;;;16.63;;
25627;SDS011;40915;50.826;4.356;2023-01-26T09:10:08;46.93;;;15.70;;
25627;SDS011;40915;50.826;4.356;2023-01-26T09:12:34;35.57;;;14.87;;
25627;SDS011;40915;50.826;4.356;2023-01-26T09:15:00;46.53;;;15.13;;
25627;SDS011;40915;50.826;4.356;2023-01-26T09:17:26;34.53;;;14.47;;
25627;SDS011;40915;50.826;4.356;2023-01-26T09:19:52;46.77;;;17.13;;
25627;SDS011;40915;50.826;4.356;2023-01-26T09:22:18;40.20;;;15.20;;
25627;SDS011;40915;50.826;4.356;2023-01-26T09:24:45;40.33;;;15.67;;
25627;SDS011;40915;50.826;4.356;2023-01-26T09:27:11;37.30;;;14.80;;
25627;SDS011;40915;50.826;4.356;2023-01-26T09:29:36;38.03;;;14.83;;
25627;SDS011;40915;50.826;4.356;2023-01-26T09:32:02;34.30;;;14.50;;
25627;SDS011;40915;50.826;4.356;2023-01-26T09:34:28;36.57;;;14.60;;
25627;SDS011;40915;50.826;4.356;2023-01-26T09:36:53;38.83;;;14.60;;
25627;SDS011;40915;50.826;4.356;2023-01-26T09:39:19;39.30;;;16.33;;
25627;SDS011;40915;50.826;4.356;2023-01-26T09:44:19;30.07;;;13.80;;
25627;SDS011;40915;50.826;4.356;2023-01-26T09:47:13;29.73;;;13.70;;
25627;SDS011;40915;50.826;4.356;2023-01-26T09:49:47;30.83;;;14.60;;
25627;SDS011;40915;50.826;4.356;2023-01-26T09:52:23;32.07;;;13.53;;
25627;SDS011;40915;50.826;4.356;2023-01-26T09:54:53;28.60;;;13.40;;
25627;SDS011;40915;50.826;4.356;2023-01-26T09:57:24;26.63;;;12.40;;
25627;SDS011;40915;50.826;4.356;2023-01-26T09:59:57;25.40;;;11.93;;
25627;SDS011;40915;50.826;4.356;2023-01-26T10:07:47;33.37;;;13.73;;
25627;SDS011;40915;50.826;4.356;2023-01-26T10:10:22;30.43;;;13.77;;
25627;SDS011;40915;50.826;4.356;2023-01-26T10:12:50;29.43;;;13.10;;
25627;SDS011;40915;50.826;4.356;2023-01-26T10:17:50;24.60;;;12.27;;
25627;SDS011;40915;50.826;4.356;2023-01-26T10:22:51;30.43;;;12.77;;
25627;SDS011;40915;50.826;4.356;2023-01-26T10:25:19;27.87;;;13.13;;
25627;SDS011;40915;50.826;4.356;2023-01-26T10:27:47;25.73;;;12.80;;
25627;SDS011;40915;50.826;4.356;2023-01-26T10:30:16;27.80;;;12.87;;
25627;SDS011;40915;50.826;4.356;2023-01-26T10:32:44;31.00;;;13.93;;
25627;SDS011;40915;50.826;4.356;2023-01-26T10:35:18;28.50;;;14.27;;
25627;SDS011;40915;50.826;4.356;2023-01-26T10:37:46;39.70;;;16.10;;
25627;SDS011;40915;50.826;4.356;2023-01-26T10:40:13;34.57;;;14.63;;
25627;SDS011;40915;50.826;4.356;2023-01-26T10:42:41;34.13;;;13.97;;
25627;SDS011;40915;50.826;4.356;2023-01-26T10:45:23;37.17;;;14.37;;
25627;SDS011;40915;50.826;4.356;2023-01-26T10:48:01;35.33;;;15.77;;
25627;SDS011;40915;50.826;4.356;2023-01-26T10:50:27;34.03;;;14.60;;
25627;SDS011;40915;50.826;4.356;2023-01-26T10:52:56;36.40;;;14.77;;
25627;SDS011;40915;50.826;4.356;2023-01-26T10:55:23;33.73;;;14.97;;
25627;SDS011;40915;50.826;4.356;2023-01-26T10:57:49;37.57;;;15.80;;
25627;SDS011;40915;50.826;4.356;2023-01-26T11:02:54;40.93;;;16.80;;
25627;SDS011;40915;50.826;4.356;2023-01-26T11:05:24;38.20;;;16.00;;
25627;SDS011;40915;50.826;4.356;2023-01-26T11:07:51;42.23;;;17.50;;
25627;SDS011;40915;50.826;4.356;2023-01-26T11:13:04;42.23;;;17.60;;
25627;SDS011;40915;50.826;4.356;2023-01-26T11:15:33;42.93;;;17.60;;
25627;SDS011;40915;50.826;4.356;2023-01-26T11:18:01;41.90;;;16.83;;
25627;SDS011;40915;50.826;4.356;2023-01-26T11:20:38;37.87;;;16.63;;
25627;SDS011;40915;50.826;4.356;2023-01-26T11:30:57;39.53;;;17.07;;
25627;SDS011;40915;50.826;4.356;2023-01-26T11:35:51;60.07;;;22.87;;
25627;SDS011;40915;50.826;4.356;2023-01-26T11:41:11;45.23;;;18.40;;
25627;SDS011;40915;50.826;4.356;2023-01-26T11:43:51;45.77;;;18.43;;
25627;SDS011;40915;50.826;4.356;2023-01-26T11:47:20;39.43;;;17.67;;
25627;SDS011;40915;50.826;4.356;2023-01-26T11:52:01;42.47;;;19.30;;
25627;SDS011;40915;50.826;4.356;2023-01-26T11:59:35;41.57;;;17.60;;
25627;SDS011;40915;50.826;4.356;2023-01-26T12:02:14;47.93;;;18.47;;
25627;SDS011;40915;50.826;4.356;2023-01-26T12:04:44;50.97;;;19.13;;
25627;SDS011;40915;50.826;4.356;2023-01-26T12:07:13;52.27;;;18.90;;
25627;SDS011;40915;50.826;4.356;2023-01-26T12:09:42;48.10;;;18.03;;
25627;SDS011;40915;50.826;4.356;2023-01-26T12:12:31;48.00;;;20.30;;
25627;SDS011;40915;50.826;4.356;2023-01-26T12:20:02;51.80;;;20.17;;
25627;SDS011;40915;50.826;4.356;2023-01-26T12:22:37;51.10;;;20.50;;
25627;SDS011;40915;50.826;4.356;2023-01-26T12:27:41;52.07;;;17.83;;
25627;SDS011;40915;50.826;4.356;2023-01-26T12:30:23;53.60;;;18.53;;
25627;SDS011;40915;50.826;4.356;2023-01-26T12:32:51;47.37;;;17.50;;
25627;SDS011;40915;50.826;4.356;2023-01-26T12:35:21;56.60;;;18.33;;
25627;SDS011;40915;50.826;4.356;2023-01-26T12:37:55;60.00;;;19.50;;
25627;SDS011;40915;50.826;4.356;2023-01-26T12:40:27;48.33;;;17.83;;
25627;SDS011;40915;50.826;4.356;2023-01-26T12:45:40;45.00;;;17.27;;
25627;SDS011;40915;50.826;4.356;2023-01-26T12:48:10;53.00;;;17.37;;
25627;SDS011;40915;50.826;4.356;2023-01-26T12:50:46;52.47;;;17.60;;
25627;SDS011;40915;50.826;4.356;2023-01-26T12:58:41;53.87;;;16.50;;
25627;SDS011;40915;50.826;4.356;2023-01-26T13:01:10;50.03;;;15.33;;
25627;SDS011;40915;50.826;4.356;2023-01-26T13:03:42;46.27;;;14.43;;
25627;SDS011;40915;50.826;4.356;2023-01-26T13:11:40;44.03;;;12.77;;
25627;SDS011;40915;50.826;4.356;2023-01-26T13:22:49;34.13;;;11.33;;
25627;SDS011;40915;50.826;4.356;2023-01-26T13:28:00;30.10;;;8.17;;
25627;SDS011;40915;50.826;4.356;2023-01-26T13:33:04;24.57;;;7.90;;
25627;SDS011;40915;50.826;4.356;2023-01-26T13:35:33;28.60;;;7.67;;
25627;SDS011;40915;50.826;4.356;2023-01-26T13:40:41;16.43;;;4.23;;
25627;SDS011;40915;50.826;4.356;2023-01-26T13:43:12;19.47;;;4.77;;
25627;SDS011;40915;50.826;4.356;2023-01-26T13:46:02;22.67;;;4.90;;
25627;SDS011;40915;50.826;4.356;2023-01-26T13:50:58;19.77;;;4.40;;
25627;SDS011;40915;50.826;4.356;2023-01-26T13:55:58;21.10;;;4.20;;
25627;SDS011;40915;50.826;4.356;2023-01-26T13:58:25;17.57;;;3.27;;
25627;SDS011;40915;50.826;4.356;2023-01-26T14:03:30;18.37;;;3.10;;
25627;SDS011;40915;50.826;4.356;2023-01-26T14:05:58;16.87;;;3.23;;
25627;SDS011;40915;50.826;4.356;2023-01-26T14:08:26;19.63;;;3.90;;
25627;SDS011;40915;50.826;4.356;2023-01-26T14:10:53;13.13;;;3.27;;
25627;SDS011;40915;50.826;4.356;2023-01-26T14:13:40;14.13;;;3.47;;
25627;SDS011;40915;50.826;4.356;2023-01-26T14:16:05;14.73;;;3.47;;
25627;SDS011;40915;50.826;4.356;2023-01-26T14:18:32;17.00;;;3.40;;
25627;SDS011;40915;50.826;4.356;2023-01-26T14:20:59;15.80;;;3.17;;
25627;SDS011;40915;50.826;4.356;2023-01-26T14:23:26;15.27;;;3.10;;
25627;SDS011;40915;50.826;4.356;2023-01-26T14:26:11;13.90;;;3.83;;
25627;SDS011;40915;50.826;4.356;2023-01-26T14:28:45;13.13;;;3.00;;
25627;SDS011;40915;50.826;4.356;2023-01-26T14:31:15;14.00;;;2.90;;
25627;SDS011;40915;50.826;4.356;2023-01-26T14:33:44;9.90;;;2.90;;
25627;SDS011;40915;50.826;4.356;2023-01-26T14:36:13;17.03;;;3.27;;
25627;SDS011;40915;50.826;4.356;2023-01-26T14:38:44;37.27;;;4.90;;
25627;SDS011;40915;50.826;4.356;2023-01-26T14:41:21;16.03;;;3.60;;
25627;SDS011;40915;50.826;4.356;2023-01-26T14:43:50;15.63;;;3.60;;
25627;SDS011;40915;50.826;4.356;2023-01-26T14:46:20;21.50;;;3.70;;
25627;SDS011;40915;50.826;4.356;2023-01-26T14:51:31;17.50;;;3.90;;
25627;SDS011;40915;50.826;4.356;2023-01-26T14:53:58;17.90;;;3.63;;
25627;SDS011;40915;50.826;4.356;2023-01-26T14:56:32;12.37;;;2.77;;
25627;SDS011;40915;50.826;4.356;2023-01-26T14:59:01;15.43;;;3.20;;
25627;SDS011;40915;50.826;4.356;2023-01-26T15:01:28;20.23;;;5.13;;
25627;SDS011;40915;50.826;4.356;2023-01-26T15:03:58;18.83;;;3.37;;
25627;SDS011;40915;50.826;4.356;2023-01-26T15:06:27;21.33;;;4.10;;
25627;SDS011;40915;50.826;4.356;2023-01-26T15:09:37;23.77;;;4.30;;
25627;SDS011;40915;50.826;4.356;2023-01-26T15:11:50;14.30;;;3.20;;
25627;SDS011;40915;50.826;4.356;2023-01-26T15:19:53;15.37;;;3.20;;
25627;SDS011;40915;50.826;4.356;2023-01-26T15:22:20;15.83;;;3.13;;
25627;SDS011;40915;50.826;4.356;2023-01-26T15:24:57;13.97;;;2.90;;
25627;SDS011;40915;50.826;4.356;2023-01-26T15:27:29;15.03;;;2.83;;
25627;SDS011;40915;50.826;4.356;2023-01-26T15:29:56;21.13;;;3.50;;
25627;SDS011;40915;50.826;4.356;2023-01-26T15:32:27;14.50;;;3.40;;
25627;SDS011;40915;50.826;4.356;2023-01-26T15:35:04;19.40;;;3.60;;
25627;SDS011;40915;50.826;4.356;2023-01-26T15:37:32;13.23;;;2.50;;
25627;SDS011;40915;50.826;4.356;2023-01-26T15:39:58;12.03;;;2.77;;
25627;SDS011;40915;50.826;4.356;2023-01-26T15:42:25;11.83;;;2.90;;
25627;SDS011;40915;50.826;4.356;2023-01-26T15:44:53;16.80;;;3.27;;
25627;SDS011;40915;50.826;4.356;2023-01-26T15:47:18;11.33;;;2.73;;
25627;SDS011;40915;50.826;4.356;2023-01-26T15:49:44;14.57;;;3.43;;
25627;SDS011;40915;50.826;4.356;2023-01-26T15:52:13;18.77;;;3.47;;
25627;SDS011;40915;50.826;4.356;2023-01-26T15:54:41;17.23;;;4.80;;
25627;SDS011;40915;50.826;4.356;2023-01-26T15:57:08;15.47;;;3.67;;
25627;SDS011;40915;50.826;4.356;2023-01-26T15:59:35;15.00;;;3.73;;
25627;SDS011;40915;50.826;4.356;2023-01-26T16:02:01;17.20;;;3.80;;
25627;SDS011;40915;50.826;4.356;2023-01-26T16:04:26;14.83;;;3.07;;
25627;SDS011;40915;50.826;4.356;2023-01-26T16:06:52;15.13;;;3.20;;
25627;SDS011;40915;50.826;4.356;2023-01-26T16:09:18;14.47;;;3.83;;
25627;SDS011;40915;50.826;4.356;2023-01-26T16:11:47;16.10;;;3.83;;
25627;SDS011;40915;50.826;4.356;2023-01-26T16:14:16;14.03;;;4.00;;